sensor_id;sensor_type;location;lat;lon;timestamp;temperature;humidity
20284;DHT22;10301;50.832;4.080;2024-02-28T00:01:37;4.40;99.90
20284;DHT22;10301;50.832;4.080;2024-02-28T00:04:03;4.40;99.90
20284;DHT22;10301;50.832;4.080;2024-02-28T00:06:29;4.40;99.90
20284;DHT22;10301;50.832;4.080;2024-02-28T00:08:54;4.40;99.90
20284;DHT22;10301;50.832;4.080;2024-02-28T00:11:20;4.30;99.90
20284;DHT22;10301;50.832;4.080;2024-02-28T00:13:46;4.30;99.90
20284;DHT22;10301;50.832;4.080;2024-02-28T00:16:12;4.40;99.90
20284;DHT22;10301;50.832;4.080;2024-02-28T00:18:38;4.50;99.90
20284;DHT22;10301;50.832;4.080;2024-02-28T00:21:03;4.60;99.90
20284;DHT22;10301;50.832;4.080;2024-02-28T00:23:29;4.60;99.90
20284;DHT22;10301;50.832;4.080;2024-02-28T00:25:56;4.60;99.90
20284;DHT22;10301;50.832;4.080;2024-02-28T00:28:21;4.80;99.90
20284;DHT22;10301;50.832;4.080;2024-02-28T00:30:47;4.80;99.90
20284;DHT22;10301;50.832;4.080;2024-02-28T00:33:12;4.50;99.90
20284;DHT22;10301;50.832;4.080;2024-02-28T00:35:39;4.20;99.90
20284;DHT22;10301;50.832;4.080;2024-02-28T00:38:05;4.10;99.90
20284;DHT22;10301;50.832;4.080;2024-02-28T00:40:31;3.90;99.90
20284;DHT22;10301;50.832;4.080;2024-02-28T00:42:57;3.80;99.90
20284;DHT22;10301;50.832;4.080;2024-02-28T00:45:23;3.80;99.90
20284;DHT22;10301;50.832;4.080;2024-02-28T00:47:49;3.90;99.90
20284;DHT22;10301;50.832;4.080;2024-02-28T00:50:15;4.00;99.90
20284;DHT22;10301;50.832;4.080;2024-02-28T00:52:40;4.10;99.90
20284;DHT22;10301;50.832;4.080;2024-02-28T00:55:06;3.90;99.90
20284;DHT22;10301;50.832;4.080;2024-02-28T00:57:32;3.70;99.90
20284;DHT22;10301;50.832;4.080;2024-02-28T00:59:59;3.70;99.90
20284;DHT22;10301;50.832;4.080;2024-02-28T01:02:24;3.70;99.90
20284;DHT22;10301;50.832;4.080;2024-02-28T01:04:50;3.80;99.90
20284;DHT22;10301;50.832;4.080;2024-02-28T01:07:16;4.00;99.90
20284;DHT22;10301;50.832;4.080;2024-02-28T01:09:42;4.10;99.90
20284;DHT22;10301;50.832;4.080;2024-02-28T01:12:07;4.00;99.90
20284;DHT22;10301;50.832;4.080;2024-02-28T01:14:33;3.90;99.90
20284;DHT22;10301;50.832;4.080;2024-02-28T01:16:59;3.90;99.90
20284;DHT22;10301;50.832;4.080;2024-02-28T01:19:25;3.80;99.90
20284;DHT22;10301;50.832;4.080;2024-02-28T01:21:50;3.60;99.90
20284;DHT22;10301;50.832;4.080;2024-02-28T01:24:16;3.50;99.90
20284;DHT22;10301;50.832;4.080;2024-02-28T01:26:42;3.40;99.90
20284;DHT22;10301;50.832;4.080;2024-02-28T01:29:07;3.40;99.90
20284;DHT22;10301;50.832;4.080;2024-02-28T01:31:33;3.60;99.90
20284;DHT22;10301;50.832;4.080;2024-02-28T01:33:59;3.80;99.90
20284;DHT22;10301;50.832;4.080;2024-02-28T01:36:24;4.10;99.90
20284;DHT22;10301;50.832;4.080;2024-02-28T01:38:52;4.30;99.90
20284;DHT22;10301;50.832;4.080;2024-02-28T01:41:17;4.20;99.90
20284;DHT22;10301;50.832;4.080;2024-02-28T01:43:43;4.00;99.90
20284;DHT22;10301;50.832;4.080;2024-02-28T01:46:27;3.80;99.90
20284;DHT22;10301;50.832;4.080;2024-02-28T01:48:56;3.70;99.90
20284;DHT22;10301;50.832;4.080;2024-02-28T01:51:25;3.60;99.90
20284;DHT22;10301;50.832;4.080;2024-02-28T01:53:54;3.90;99.90
20284;DHT22;10301;50.832;4.080;2024-02-28T01:56:20;3.90;99.90
20284;DHT22;10301;50.832;4.080;2024-02-28T01:58:49;3.90;99.90
20284;DHT22;10301;50.832;4.080;2024-02-28T02:01:16;4.00;99.90
20284;DHT22;10301;50.832;4.080;2024-02-28T02:03:43;3.90;99.90
20284;DHT22;10301;50.832;4.080;2024-02-28T02:06:09;3.80;99.90
20284;DHT22;10301;50.832;4.080;2024-02-28T02:08:36;3.70;99.90
20284;DHT22;10301;50.832;4.080;2024-02-28T02:11:02;3.70;99.90
20284;DHT22;10301;50.832;4.080;2024-02-28T02:13:28;3.80;99.90
20284;DHT22;10301;50.832;4.080;2024-02-28T02:15:54;3.90;99.90
20284;DHT22;10301;50.832;4.080;2024-02-28T02:18:19;4.00;99.90
20284;DHT22;10301;50.832;4.080;2024-02-28T02:20:58;4.00;99.90
20284;DHT22;10301;50.832;4.080;2024-02-28T02:23:25;4.30;99.90
20284;DHT22;10301;50.832;4.080;2024-02-28T02:25:51;4.30;99.90
20284;DHT22;10301;50.832;4.080;2024-02-28T02:28:17;4.40;99.90
20284;DHT22;10301;50.832;4.080;2024-02-28T02:30:42;4.30;99.90
20284;DHT22;10301;50.832;4.080;2024-02-28T02:33:08;4.20;99.90
20284;DHT22;10301;50.832;4.080;2024-02-28T02:35:34;4.20;99.90
20284;DHT22;10301;50.832;4.080;2024-02-28T02:38:00;4.30;99.90
20284;DHT22;10301;50.832;4.080;2024-02-28T02:40:26;4.30;99.90
20284;DHT22;10301;50.832;4.080;2024-02-28T02:42:52;4.20;99.90
20284;DHT22;10301;50.832;4.080;2024-02-28T02:45:17;4.10;99.90
20284;DHT22;10301;50.832;4.080;2024-02-28T02:47:43;4.00;99.90
20284;DHT22;10301;50.832;4.080;2024-02-28T02:50:11;3.90;99.90
20284;DHT22;10301;50.832;4.080;2024-02-28T02:52:37;3.80;99.90
20284;DHT22;10301;50.832;4.080;2024-02-28T02:55:03;3.80;99.90
20284;DHT22;10301;50.832;4.080;2024-02-28T02:57:29;3.60;99.90
20284;DHT22;10301;50.832;4.080;2024-02-28T02:59:56;3.40;99.90
20284;DHT22;10301;50.832;4.080;2024-02-28T03:02:22;3.30;99.90
20284;DHT22;10301;50.832;4.080;2024-02-28T03:04:48;3.70;99.90
20284;DHT22;10301;50.832;4.080;2024-02-28T03:07:13;3.80;99.90
20284;DHT22;10301;50.832;4.080;2024-02-28T03:09:39;3.90;99.90
20284;DHT22;10301;50.832;4.080;2024-02-28T03:12:05;3.90;99.90
20284;DHT22;10301;50.832;4.080;2024-02-28T03:14:30;3.70;99.90
20284;DHT22;10301;50.832;4.080;2024-02-28T03:16:56;3.50;99.90
20284;DHT22;10301;50.832;4.080;2024-02-28T03:19:22;3.40;99.90
20284;DHT22;10301;50.832;4.080;2024-02-28T03:21:48;3.30;99.90
20284;DHT22;10301;50.832;4.080;2024-02-28T03:24:13;3.30;99.90
20284;DHT22;10301;50.832;4.080;2024-02-28T03:26:39;3.30;99.90
20284;DHT22;10301;50.832;4.080;2024-02-28T03:29:04;3.70;99.90
20284;DHT22;10301;50.832;4.080;2024-02-28T03:31:30;3.60;99.90
20284;DHT22;10301;50.832;4.080;2024-02-28T03:33:56;3.40;99.90
20284;DHT22;10301;50.832;4.080;2024-02-28T03:36:21;3.50;99.90
20284;DHT22;10301;50.832;4.080;2024-02-28T03:38:47;3.40;99.90
20284;DHT22;10301;50.832;4.080;2024-02-28T03:41:13;3.50;99.90
20284;DHT22;10301;50.832;4.080;2024-02-28T03:43:38;3.60;99.90
20284;DHT22;10301;50.832;4.080;2024-02-28T03:46:04;3.60;99.90
20284;DHT22;10301;50.832;4.080;2024-02-28T03:48:29;3.50;99.90
20284;DHT22;10301;50.832;4.080;2024-02-28T03:50:55;3.70;99.90
20284;DHT22;10301;50.832;4.080;2024-02-28T03:53:21;3.70;99.90
20284;DHT22;10301;50.832;4.080;2024-02-28T03:55:46;3.50;99.90
20284;DHT22;10301;50.832;4.080;2024-02-28T03:58:12;3.50;99.90
20284;DHT22;10301;50.832;4.080;2024-02-28T04:00:38;3.50;99.90
20284;DHT22;10301;50.832;4.080;2024-02-28T04:03:04;3.40;99.90
20284;DHT22;10301;50.832;4.080;2024-02-28T04:05:30;3.40;99.90
20284;DHT22;10301;50.832;4.080;2024-02-28T04:07:56;3.30;99.90
20284;DHT22;10301;50.832;4.080;2024-02-28T04:10:22;3.40;99.90
20284;DHT22;10301;50.832;4.080;2024-02-28T04:12:47;3.20;99.90
20284;DHT22;10301;50.832;4.080;2024-02-28T04:15:14;3.40;99.90
20284;DHT22;10301;50.832;4.080;2024-02-28T04:17:40;3.50;99.90
20284;DHT22;10301;50.832;4.080;2024-02-28T04:20:10;3.60;99.90
20284;DHT22;10301;50.832;4.080;2024-02-28T04:22:36;3.50;99.90
20284;DHT22;10301;50.832;4.080;2024-02-28T04:25:03;3.30;99.90
20284;DHT22;10301;50.832;4.080;2024-02-28T04:27:29;3.30;99.90
20284;DHT22;10301;50.832;4.080;2024-02-28T04:29:54;3.30;99.90
20284;DHT22;10301;50.832;4.080;2024-02-28T04:32:20;3.40;99.90
20284;DHT22;10301;50.832;4.080;2024-02-28T04:34:46;3.40;99.90
20284;DHT22;10301;50.832;4.080;2024-02-28T04:37:11;3.20;99.90
20284;DHT22;10301;50.832;4.080;2024-02-28T04:39:37;3.30;99.90
20284;DHT22;10301;50.832;4.080;2024-02-28T04:42:03;3.60;99.90
20284;DHT22;10301;50.832;4.080;2024-02-28T04:44:28;3.70;99.90
20284;DHT22;10301;50.832;4.080;2024-02-28T04:46:54;3.80;99.90
20284;DHT22;10301;50.832;4.080;2024-02-28T04:49:19;3.80;99.90
20284;DHT22;10301;50.832;4.080;2024-02-28T04:51:45;3.80;99.90
20284;DHT22;10301;50.832;4.080;2024-02-28T04:54:11;3.90;99.90
20284;DHT22;10301;50.832;4.080;2024-02-28T04:56:40;4.00;99.90
20284;DHT22;10301;50.832;4.080;2024-02-28T04:59:07;4.10;99.90
20284;DHT22;10301;50.832;4.080;2024-02-28T05:01:33;4.20;99.90
20284;DHT22;10301;50.832;4.080;2024-02-28T05:04:00;4.20;99.90
20284;DHT22;10301;50.832;4.080;2024-02-28T05:06:26;4.30;99.90
20284;DHT22;10301;50.832;4.080;2024-02-28T05:08:52;4.40;99.90
20284;DHT22;10301;50.832;4.080;2024-02-28T05:11:18;4.50;99.90
20284;DHT22;10301;50.832;4.080;2024-02-28T05:13:43;4.60;99.90
20284;DHT22;10301;50.832;4.080;2024-02-28T05:16:16;4.60;99.90
20284;DHT22;10301;50.832;4.080;2024-02-28T05:18:43;4.60;99.90
20284;DHT22;10301;50.832;4.080;2024-02-28T05:21:10;4.70;99.90
20284;DHT22;10301;50.832;4.080;2024-02-28T05:23:36;4.70;99.90
20284;DHT22;10301;50.832;4.080;2024-02-28T05:26:02;4.80;99.90
20284;DHT22;10301;50.832;4.080;2024-02-28T05:28:29;4.70;99.90
20284;DHT22;10301;50.832;4.080;2024-02-28T05:30:56;4.70;99.90
20284;DHT22;10301;50.832;4.080;2024-02-28T05:33:22;4.70;99.90
20284;DHT22;10301;50.832;4.080;2024-02-28T05:35:48;4.30;99.90
20284;DHT22;10301;50.832;4.080;2024-02-28T05:38:14;4.20;99.90
20284;DHT22;10301;50.832;4.080;2024-02-28T05:40:41;4.30;99.90
20284;DHT22;10301;50.832;4.080;2024-02-28T05:43:07;4.50;99.90
20284;DHT22;10301;50.832;4.080;2024-02-28T05:45:33;4.50;99.90
20284;DHT22;10301;50.832;4.080;2024-02-28T05:47:59;4.70;99.90
20284;DHT22;10301;50.832;4.080;2024-02-28T05:50:24;4.60;99.90
20284;DHT22;10301;50.832;4.080;2024-02-28T05:52:50;4.50;99.90
20284;DHT22;10301;50.832;4.080;2024-02-28T05:55:17;4.50;99.90
20284;DHT22;10301;50.832;4.080;2024-02-28T05:57:43;4.70;99.90
20284;DHT22;10301;50.832;4.080;2024-02-28T06:00:09;4.80;99.90
20284;DHT22;10301;50.832;4.080;2024-02-28T06:02:38;4.80;99.90
20284;DHT22;10301;50.832;4.080;2024-02-28T06:05:04;4.60;99.90
20284;DHT22;10301;50.832;4.080;2024-02-28T06:07:30;4.20;99.90
20284;DHT22;10301;50.832;4.080;2024-02-28T06:09:56;4.10;99.90
20284;DHT22;10301;50.832;4.080;2024-02-28T06:12:21;4.10;99.90
20284;DHT22;10301;50.832;4.080;2024-02-28T06:14:47;4.10;99.90
20284;DHT22;10301;50.832;4.080;2024-02-28T06:17:13;4.30;99.90
20284;DHT22;10301;50.832;4.080;2024-02-28T06:19:38;4.20;99.90
20284;DHT22;10301;50.832;4.080;2024-02-28T06:22:04;4.40;99.90
20284;DHT22;10301;50.832;4.080;2024-02-28T06:24:30;4.20;99.90
20284;DHT22;10301;50.832;4.080;2024-02-28T06:26:58;4.00;99.90
20284;DHT22;10301;50.832;4.080;2024-02-28T06:29:24;4.10;99.90
20284;DHT22;10301;50.832;4.080;2024-02-28T06:31:50;4.10;99.90
20284;DHT22;10301;50.832;4.080;2024-02-28T06:34:17;4.10;99.90
20284;DHT22;10301;50.832;4.080;2024-02-28T06:36:43;4.20;99.90
20284;DHT22;10301;50.832;4.080;2024-02-28T06:39:09;4.50;99.90
20284;DHT22;10301;50.832;4.080;2024-02-28T06:41:34;4.70;99.90
20284;DHT22;10301;50.832;4.080;2024-02-28T06:44:00;4.80;99.90
20284;DHT22;10301;50.832;4.080;2024-02-28T06:46:26;5.00;99.90
20284;DHT22;10301;50.832;4.080;2024-02-28T06:48:52;4.80;99.90
20284;DHT22;10301;50.832;4.080;2024-02-28T06:51:17;4.90;99.90
20284;DHT22;10301;50.832;4.080;2024-02-28T06:53:43;5.20;99.90
20284;DHT22;10301;50.832;4.080;2024-02-28T06:56:09;5.40;99.90
20284;DHT22;10301;50.832;4.080;2024-02-28T06:58:34;5.60;99.90
20284;DHT22;10301;50.832;4.080;2024-02-28T07:01:00;5.80;99.90
20284;DHT22;10301;50.832;4.080;2024-02-28T07:03:26;5.60;99.90
20284;DHT22;10301;50.832;4.080;2024-02-28T07:05:51;5.40;99.90
20284;DHT22;10301;50.832;4.080;2024-02-28T07:08:18;5.40;99.90
20284;DHT22;10301;50.832;4.080;2024-02-28T07:10:44;5.50;99.90
20284;DHT22;10301;50.832;4.080;2024-02-28T07:13:13;5.60;99.90
20284;DHT22;10301;50.832;4.080;2024-02-28T07:15:38;5.40;99.90
20284;DHT22;10301;50.832;4.080;2024-02-28T07:18:05;5.30;99.90
20284;DHT22;10301;50.832;4.080;2024-02-28T07:20:31;5.20;99.90
20284;DHT22;10301;50.832;4.080;2024-02-28T07:22:57;5.20;99.90
20284;DHT22;10301;50.832;4.080;2024-02-28T07:25:22;5.50;99.90
20284;DHT22;10301;50.832;4.080;2024-02-28T07:27:48;5.90;99.90
20284;DHT22;10301;50.832;4.080;2024-02-28T07:30:14;6.10;99.90
20284;DHT22;10301;50.832;4.080;2024-02-28T07:32:39;6.20;99.90
20284;DHT22;10301;50.832;4.080;2024-02-28T07:35:05;6.40;99.90
20284;DHT22;10301;50.832;4.080;2024-02-28T07:37:31;6.40;99.90
20284;DHT22;10301;50.832;4.080;2024-02-28T07:39:57;6.20;99.90
20284;DHT22;10301;50.832;4.080;2024-02-28T07:42:22;6.30;99.90
20284;DHT22;10301;50.832;4.080;2024-02-28T07:44:48;6.30;99.90
20284;DHT22;10301;50.832;4.080;2024-02-28T07:47:21;6.40;99.90
20284;DHT22;10301;50.832;4.080;2024-02-28T07:49:48;6.50;99.90
20284;DHT22;10301;50.832;4.080;2024-02-28T07:52:13;6.60;99.90
20284;DHT22;10301;50.832;4.080;2024-02-28T07:54:41;6.70;99.90
20284;DHT22;10301;50.832;4.080;2024-02-28T07:57:08;6.80;99.90
20284;DHT22;10301;50.832;4.080;2024-02-28T07:59:42;6.70;99.90
20284;DHT22;10301;50.832;4.080;2024-02-28T08:02:08;6.70;99.90
20284;DHT22;10301;50.832;4.080;2024-02-28T08:04:35;6.70;99.90
20284;DHT22;10301;50.832;4.080;2024-02-28T08:07:00;6.90;99.90
20284;DHT22;10301;50.832;4.080;2024-02-28T08:09:26;7.00;99.90
20284;DHT22;10301;50.832;4.080;2024-02-28T08:11:52;7.10;99.90
20284;DHT22;10301;50.832;4.080;2024-02-28T08:14:18;7.40;99.90
20284;DHT22;10301;50.832;4.080;2024-02-28T08:16:43;7.10;99.90
20284;DHT22;10301;50.832;4.080;2024-02-28T08:19:09;6.90;99.90
20284;DHT22;10301;50.832;4.080;2024-02-28T08:21:35;6.90;99.90
20284;DHT22;10301;50.832;4.080;2024-02-28T08:24:00;7.20;99.90
20284;DHT22;10301;50.832;4.080;2024-02-28T08:26:30;6.90;99.90
20284;DHT22;10301;50.832;4.080;2024-02-28T08:28:56;6.70;99.90
20284;DHT22;10301;50.832;4.080;2024-02-28T08:31:21;6.80;99.90
20284;DHT22;10301;50.832;4.080;2024-02-28T08:33:47;7.10;99.90
20284;DHT22;10301;50.832;4.080;2024-02-28T08:36:12;7.30;99.90
20284;DHT22;10301;50.832;4.080;2024-02-28T08:38:38;7.40;99.90
20284;DHT22;10301;50.832;4.080;2024-02-28T08:41:05;7.50;99.90
20284;DHT22;10301;50.832;4.080;2024-02-28T08:43:30;7.50;99.90
20284;DHT22;10301;50.832;4.080;2024-02-28T08:45:56;7.50;99.90
20284;DHT22;10301;50.832;4.080;2024-02-28T08:48:21;7.50;99.90
20284;DHT22;10301;50.832;4.080;2024-02-28T08:50:48;7.50;99.90
20284;DHT22;10301;50.832;4.080;2024-02-28T08:53:14;7.50;99.90
20284;DHT22;10301;50.832;4.080;2024-02-28T08:55:39;7.50;99.90
20284;DHT22;10301;50.832;4.080;2024-02-28T08:58:05;7.60;99.90
20284;DHT22;10301;50.832;4.080;2024-02-28T09:00:31;7.80;99.90
20284;DHT22;10301;50.832;4.080;2024-02-28T09:02:56;7.90;99.90
20284;DHT22;10301;50.832;4.080;2024-02-28T09:05:23;7.90;99.90
20284;DHT22;10301;50.832;4.080;2024-02-28T09:07:50;7.60;99.90
20284;DHT22;10301;50.832;4.080;2024-02-28T09:10:17;7.30;99.90
20284;DHT22;10301;50.832;4.080;2024-02-28T09:12:52;7.50;99.90
20284;DHT22;10301;50.832;4.080;2024-02-28T09:15:18;8.00;99.90
20284;DHT22;10301;50.832;4.080;2024-02-28T09:17:43;8.10;99.90
20284;DHT22;10301;50.832;4.080;2024-02-28T09:20:10;7.70;99.90
20284;DHT22;10301;50.832;4.080;2024-02-28T09:22:36;7.70;99.90
20284;DHT22;10301;50.832;4.080;2024-02-28T09:25:01;7.70;99.90
20284;DHT22;10301;50.832;4.080;2024-02-28T09:27:32;7.60;99.90
20284;DHT22;10301;50.832;4.080;2024-02-28T09:29:58;7.60;99.90
20284;DHT22;10301;50.832;4.080;2024-02-28T09:32:24;7.80;99.90
20284;DHT22;10301;50.832;4.080;2024-02-28T09:34:49;8.00;99.90
20284;DHT22;10301;50.832;4.080;2024-02-28T09:37:15;7.90;99.90
20284;DHT22;10301;50.832;4.080;2024-02-28T09:39:42;7.90;99.90
20284;DHT22;10301;50.832;4.080;2024-02-28T09:42:08;8.00;99.90
20284;DHT22;10301;50.832;4.080;2024-02-28T09:44:35;8.00;99.90
20284;DHT22;10301;50.832;4.080;2024-02-28T09:47:02;8.10;99.90
20284;DHT22;10301;50.832;4.080;2024-02-28T09:49:28;8.80;99.90
20284;DHT22;10301;50.832;4.080;2024-02-28T09:51:57;9.10;99.90
20284;DHT22;10301;50.832;4.080;2024-02-28T09:54:23;9.00;99.90
20284;DHT22;10301;50.832;4.080;2024-02-28T09:56:49;9.30;99.90
20284;DHT22;10301;50.832;4.080;2024-02-28T09:59:18;9.20;99.90
20284;DHT22;10301;50.832;4.080;2024-02-28T10:01:49;9.30;99.90
20284;DHT22;10301;50.832;4.080;2024-02-28T10:04:17;9.20;99.90
20284;DHT22;10301;50.832;4.080;2024-02-28T10:06:43;9.10;99.90
20284;DHT22;10301;50.832;4.080;2024-02-28T10:09:09;9.00;99.90
20284;DHT22;10301;50.832;4.080;2024-02-28T10:11:36;9.20;99.90
20284;DHT22;10301;50.832;4.080;2024-02-28T10:14:02;9.30;99.90
20284;DHT22;10301;50.832;4.080;2024-02-28T10:16:29;9.20;99.90
20284;DHT22;10301;50.832;4.080;2024-02-28T10:18:55;9.10;99.90
20284;DHT22;10301;50.832;4.080;2024-02-28T10:21:20;8.70;99.90
20284;DHT22;10301;50.832;4.080;2024-02-28T10:23:46;8.90;99.90
20284;DHT22;10301;50.832;4.080;2024-02-28T10:26:12;8.80;99.90
20284;DHT22;10301;50.832;4.080;2024-02-28T10:28:39;9.00;99.90
20284;DHT22;10301;50.832;4.080;2024-02-28T10:31:06;9.30;99.90
20284;DHT22;10301;50.832;4.080;2024-02-28T10:33:33;9.60;99.90
20284;DHT22;10301;50.832;4.080;2024-02-28T10:36:02;9.40;99.90
20284;DHT22;10301;50.832;4.080;2024-02-28T10:38:31;9.20;99.90
20284;DHT22;10301;50.832;4.080;2024-02-28T10:41:02;9.10;99.90
20284;DHT22;10301;50.832;4.080;2024-02-28T10:43:29;9.50;99.90
20284;DHT22;10301;50.832;4.080;2024-02-28T10:45:57;9.40;99.90
20284;DHT22;10301;50.832;4.080;2024-02-28T10:48:24;9.40;99.90
20284;DHT22;10301;50.832;4.080;2024-02-28T10:50:51;9.60;99.90
20284;DHT22;10301;50.832;4.080;2024-02-28T10:53:36;9.60;99.90
20284;DHT22;10301;50.832;4.080;2024-02-28T10:56:05;10.00;99.90
20284;DHT22;10301;50.832;4.080;2024-02-28T10:58:35;10.20;96.50
20284;DHT22;10301;50.832;4.080;2024-02-28T11:01:04;10.00;99.70
20284;DHT22;10301;50.832;4.080;2024-02-28T11:03:31;10.00;99.90
20284;DHT22;10301;50.832;4.080;2024-02-28T11:05:57;10.40;95.40
20284;DHT22;10301;50.832;4.080;2024-02-28T11:08:24;10.80;90.00
20284;DHT22;10301;50.832;4.080;2024-02-28T11:11:03;10.80;84.90
20284;DHT22;10301;50.832;4.080;2024-02-28T11:13:32;10.70;88.60
20284;DHT22;10301;50.832;4.080;2024-02-28T11:16:07;11.00;79.30
20284;DHT22;10301;50.832;4.080;2024-02-28T11:18:33;10.80;76.40
20284;DHT22;10301;50.832;4.080;2024-02-28T11:20:59;10.40;93.60
20284;DHT22;10301;50.832;4.080;2024-02-28T11:23:24;10.30;96.80
20284;DHT22;10301;50.832;4.080;2024-02-28T11:25:51;10.50;92.80
20284;DHT22;10301;50.832;4.080;2024-02-28T11:28:17;10.60;90.00
20284;DHT22;10301;50.832;4.080;2024-02-28T11:30:48;10.20;93.50
20284;DHT22;10301;50.832;4.080;2024-02-28T11:33:13;10.60;88.40
20284;DHT22;10301;50.832;4.080;2024-02-28T11:35:39;10.20;94.70
20284;DHT22;10301;50.832;4.080;2024-02-28T11:38:06;9.80;97.50
20284;DHT22;10301;50.832;4.080;2024-02-28T11:40:32;9.70;99.90
20284;DHT22;10301;50.832;4.080;2024-02-28T11:42:57;10.10;99.90
20284;DHT22;10301;50.832;4.080;2024-02-28T11:45:24;10.10;99.70
20284;DHT22;10301;50.832;4.080;2024-02-28T11:47:53;10.00;98.20
20284;DHT22;10301;50.832;4.080;2024-02-28T11:50:18;9.70;99.90
20284;DHT22;10301;50.832;4.080;2024-02-28T11:52:44;9.60;99.90
20284;DHT22;10301;50.832;4.080;2024-02-28T11:55:10;9.80;99.90
20284;DHT22;10301;50.832;4.080;2024-02-28T11:57:37;9.90;99.90
20284;DHT22;10301;50.832;4.080;2024-02-28T12:00:07;9.70;99.90
20284;DHT22;10301;50.832;4.080;2024-02-28T12:02:33;9.70;99.90
20284;DHT22;10301;50.832;4.080;2024-02-28T12:05:03;9.70;99.90
20284;DHT22;10301;50.832;4.080;2024-02-28T12:07:32;9.80;99.90
20284;DHT22;10301;50.832;4.080;2024-02-28T12:09:59;10.00;99.90
20284;DHT22;10301;50.832;4.080;2024-02-28T12:12:25;10.20;98.60
20284;DHT22;10301;50.832;4.080;2024-02-28T12:14:52;10.70;95.10
20284;DHT22;10301;50.832;4.080;2024-02-28T12:17:18;11.20;79.40
20284;DHT22;10301;50.832;4.080;2024-02-28T12:19:44;11.00;79.90
20284;DHT22;10301;50.832;4.080;2024-02-28T12:22:10;10.70;91.50
20284;DHT22;10301;50.832;4.080;2024-02-28T12:24:36;10.60;93.10
20284;DHT22;10301;50.832;4.080;2024-02-28T12:27:02;10.90;83.10
20284;DHT22;10301;50.832;4.080;2024-02-28T12:29:28;11.00;84.60
20284;DHT22;10301;50.832;4.080;2024-02-28T12:31:53;11.20;78.30
20284;DHT22;10301;50.832;4.080;2024-02-28T12:34:19;11.30;77.90
20284;DHT22;10301;50.832;4.080;2024-02-28T12:36:45;11.10;82.60
20284;DHT22;10301;50.832;4.080;2024-02-28T12:39:10;11.10;90.00
20284;DHT22;10301;50.832;4.080;2024-02-28T12:41:37;11.00;85.80
20284;DHT22;10301;50.832;4.080;2024-02-28T12:44:07;10.80;87.90
20284;DHT22;10301;50.832;4.080;2024-02-28T12:46:34;11.00;88.00
20284;DHT22;10301;50.832;4.080;2024-02-28T12:49:00;11.30;82.40
20284;DHT22;10301;50.832;4.080;2024-02-28T12:51:45;11.70;73.30
20284;DHT22;10301;50.832;4.080;2024-02-28T12:54:12;11.30;71.30
20284;DHT22;10301;50.832;4.080;2024-02-28T12:56:41;11.10;76.20
20284;DHT22;10301;50.832;4.080;2024-02-28T12:59:10;10.80;85.20
20284;DHT22;10301;50.832;4.080;2024-02-28T13:01:36;10.50;93.60
20284;DHT22;10301;50.832;4.080;2024-02-28T13:04:02;10.50;93.30
20284;DHT22;10301;50.832;4.080;2024-02-28T13:06:28;10.50;92.00
20284;DHT22;10301;50.832;4.080;2024-02-28T13:08:54;10.60;92.40
20284;DHT22;10301;50.832;4.080;2024-02-28T13:11:22;10.90;90.60
20284;DHT22;10301;50.832;4.080;2024-02-28T13:13:48;11.10;84.30
20284;DHT22;10301;50.832;4.080;2024-02-28T13:16:15;11.10;84.90
20284;DHT22;10301;50.832;4.080;2024-02-28T13:18:41;11.20;82.00
20284;DHT22;10301;50.832;4.080;2024-02-28T13:21:07;11.20;83.10
20284;DHT22;10301;50.832;4.080;2024-02-28T13:23:33;11.50;78.50
20284;DHT22;10301;50.832;4.080;2024-02-28T13:26:00;11.60;78.70
20284;DHT22;10301;50.832;4.080;2024-02-28T13:28:27;11.60;66.50
20284;DHT22;10301;50.832;4.080;2024-02-28T13:30:58;11.60;76.10
20284;DHT22;10301;50.832;4.080;2024-02-28T13:33:24;11.80;60.90
20284;DHT22;10301;50.832;4.080;2024-02-28T13:35:50;11.70;64.10
20284;DHT22;10301;50.832;4.080;2024-02-28T13:38:18;11.30;77.20
20284;DHT22;10301;50.832;4.080;2024-02-28T13:40:45;11.50;80.10
20284;DHT22;10301;50.832;4.080;2024-02-28T13:43:11;11.70;61.80
20284;DHT22;10301;50.832;4.080;2024-02-28T13:45:46;11.50;65.50
20284;DHT22;10301;50.832;4.080;2024-02-28T13:48:19;11.50;68.00
20284;DHT22;10301;50.832;4.080;2024-02-28T13:50:47;11.60;61.60
20284;DHT22;10301;50.832;4.080;2024-02-28T13:53:13;11.60;69.00
20284;DHT22;10301;50.832;4.080;2024-02-28T13:55:43;11.90;61.50
20284;DHT22;10301;50.832;4.080;2024-02-28T13:58:11;11.80;55.00
20284;DHT22;10301;50.832;4.080;2024-02-28T14:00:38;11.70;51.90
20284;DHT22;10301;50.832;4.080;2024-02-28T14:03:04;11.50;63.60
20284;DHT22;10301;50.832;4.080;2024-02-28T14:05:30;11.10;72.30
20284;DHT22;10301;50.832;4.080;2024-02-28T14:07:56;11.10;78.60
20284;DHT22;10301;50.832;4.080;2024-02-28T14:10:25;11.20;73.30
20284;DHT22;10301;50.832;4.080;2024-02-28T14:12:51;11.30;70.40
20284;DHT22;10301;50.832;4.080;2024-02-28T14:15:20;11.20;66.90
20284;DHT22;10301;50.832;4.080;2024-02-28T14:17:46;11.40;66.20
20284;DHT22;10301;50.832;4.080;2024-02-28T14:20:12;11.70;52.40
20284;DHT22;10301;50.832;4.080;2024-02-28T14:22:38;11.40;63.70
20284;DHT22;10301;50.832;4.080;2024-02-28T14:25:11;11.50;68.00
20284;DHT22;10301;50.832;4.080;2024-02-28T14:27:37;11.70;62.00
20284;DHT22;10301;50.832;4.080;2024-02-28T14:30:07;11.80;62.80
20284;DHT22;10301;50.832;4.080;2024-02-28T14:32:37;11.70;53.40
20284;DHT22;10301;50.832;4.080;2024-02-28T14:35:07;11.80;57.40
20284;DHT22;10301;50.832;4.080;2024-02-28T14:37:37;11.60;54.90
20284;DHT22;10301;50.832;4.080;2024-02-28T14:40:05;11.80;59.00
20284;DHT22;10301;50.832;4.080;2024-02-28T14:42:39;11.80;52.40
20284;DHT22;10301;50.832;4.080;2024-02-28T14:45:06;12.00;45.60
20284;DHT22;10301;50.832;4.080;2024-02-28T14:47:32;11.90;45.70
20284;DHT22;10301;50.832;4.080;2024-02-28T14:49:59;11.70;52.50
20284;DHT22;10301;50.832;4.080;2024-02-28T14:52:24;11.70;53.70
20284;DHT22;10301;50.832;4.080;2024-02-28T14:54:50;11.50;59.50
20284;DHT22;10301;50.832;4.080;2024-02-28T14:57:16;11.30;59.10
20284;DHT22;10301;50.832;4.080;2024-02-28T14:59:42;11.20;66.20
20284;DHT22;10301;50.832;4.080;2024-02-28T15:02:09;11.10;71.40
20284;DHT22;10301;50.832;4.080;2024-02-28T15:04:36;11.20;64.60
20284;DHT22;10301;50.832;4.080;2024-02-28T15:07:02;11.20;71.90
20284;DHT22;10301;50.832;4.080;2024-02-28T15:09:28;11.40;68.80
20284;DHT22;10301;50.832;4.080;2024-02-28T15:11:54;11.80;58.10
20284;DHT22;10301;50.832;4.080;2024-02-28T15:14:20;11.90;57.70
20284;DHT22;10301;50.832;4.080;2024-02-28T15:16:47;12.40;44.70
20284;DHT22;10301;50.832;4.080;2024-02-28T15:19:12;12.40;25.60
20284;DHT22;10301;50.832;4.080;2024-02-28T15:21:38;11.90;43.10
20284;DHT22;10301;50.832;4.080;2024-02-28T15:24:04;11.80;51.70
20284;DHT22;10301;50.832;4.080;2024-02-28T15:26:30;11.90;50.90
20284;DHT22;10301;50.832;4.080;2024-02-28T15:28:56;11.90;49.00
20284;DHT22;10301;50.832;4.080;2024-02-28T15:31:22;11.70;50.10
20284;DHT22;10301;50.832;4.080;2024-02-28T15:33:51;11.60;47.10
20284;DHT22;10301;50.832;4.080;2024-02-28T15:36:16;11.50;53.40
20284;DHT22;10301;50.832;4.080;2024-02-28T15:38:42;11.50;51.20